CYVO

Val-D'or Airport

Val-D'or, , Canada
METAR CYVO 160433Z AUTO 16004KT 1SM R18/3500VP6000FT/ BR CLR M07/M07 A3018 RMK SLP245
Observed Flight Rules
Dec-16 @ 04:33 UTC (8 minutes ago) Instrument Flight Rules
Wind Visibility Clouds Conditions
160° at 4 knots 1 miles
  • Clear skies
  • Mist
Temperatures Readings
Current -7°C / 19°F
Dewpoint -7°C / 19°F
Humidity 100%
Altimeter 30.18" Hg
Pressure 1024.5 hPa
Elevation 337
METAR CYVO 160433Z AUTO 16004KT 1SM R18/3500VP6000FT/ BR CLR M07/M07 A3018 RMK SLP245
Observed Flight Rules
Dec-16 @ 04:33 UTC
(8 minutes ago)
IFR
Wind Visibility
160° at 4 knots 1 miles
Clouds
  • Clear skies
Conditions
  • Mist
Temperature Dewpoint
-7°C / 19°F -7°C / 19°F
Humidity Altimeter Pressure
100% 30.18" Hg 1024.5 hPa